Wilbur by the Sea, Florida
Current Conditions -  °F | °C
As of 12:47 PM on Friday 21 Nov 2014 (Local Time) from KEVB Reporting Station
Clear Clear  
Wind Chill: 22°   Ceiling: Unl
Heat Index: 22°   Visibility: 10mi
Dew Point: 12°   Wind: 14mph
Humidity: 53%   Direction: 10°N
Pressure: 30.3"   Gusts: 17mph
Location:  29.1091°N, 80.9979°W
Report Text: KEVB 211747Z 01012G15KT 10SM SKC 22/12 A3030
Loading
Personal Weather Stations






























Interactive Weather Map New forecast layout! Learn more

10-Day Weather Forecast

Advertisements
Track Severe Weather on mobile